Weather

BOSCOMBE DOWN (EGDM)

METAR

EGDM 190150Z AUTO 30006KT 4800 BR SCT008/// BKN170/// 13/12 Q1013

TAF

TAF EGDM 211948Z 2121/2212 23015G25KT 9999 BKN020 TEMPO 2121/2201 BKN012 BECMG 2201/2203 BKN010 PROB30 TEMPO 2201/2208 24020G35KT PROB40 TEMPO 2202/2210 3000 -RADZ BKN006 BECMG 2209/2211 SCT025 TEMPO 2211/2212 SCT015

BRISTOL AIRPORT (EGGD)

METAR

EGGD 190220Z AUTO 26006KT 9999 SCT017 BKN044 12/11 Q1013 RERA

TAF

TAF AMD EGGD 190056Z 1900/1924 26008KT 9999 SCT020 TEMPO 1900/1903 3000 RA BKN006 PROB30 TEMPO 1900/1902 BKN003 PROB30 TEMPO 1908/1914 6000 SHRA BKN008

BRIZE NORTON (EGVN)

METAR

EGVN 190150Z 00000KT 9999 FEW038 SCT240 13/11 Q1012 NOSIG RMK BLU BLU

TAF

TAF EGVN 190128Z 1903/2003 VRB05KT 9999 SCT045 PROB40 TEMPO 1903/1909 4000 -RA BKN008 PROB30 TEMPO 1903/1907 2000 BR BKN004 PROB30 TEMPO 1913/1920 7000 -SHRA

OXFORD (EGTK)

METAR

EGTK 182120Z 06001KT CAVOK 15/12 Q1013

Pressure charts

Click to see pressure charts
(redidrection to MetOffice website)